Time;durP1;ratioP1;P1;durP2;ratioP2;P2;SDS_P1;SDS_P2;PMS_P1;PMS_P2;Temp;Humidity;BMP_temperature;BMP_pressure;BME280_temperature;BME280_humidity;BME280_pressure;Samples;Min_cycle;Max_cycle;Signal;HPM_P1;HPM_P2
2022/08/10 00:00:22;;;;;;;2.40;1.85;;;18.30;99.90;;;;;;5041773;28;25069;-72
2022/08/10 00:02:49;;;;;;;2.00;1.85;;;18.30;99.90;;;;;;5043489;28;25067;-70
2022/08/10 00:05:15;;;;;;;3.13;2.00;;;18.30;99.90;;;;;;5033633;28;25065;-71
2022/08/10 00:07:41;;;;;;;3.15;2.10;;;18.30;99.90;;;;;;5036444;28;25143;-72
2022/08/10 00:10:08;;;;;;;3.75;2.10;;;18.30;99.90;;;;;;5037759;28;25069;-71
2022/08/10 00:12:34;;;;;;;4.97;2.40;;;18.30;99.90;;;;;;5040774;28;25056;-72
2022/08/10 00:14:59;;;;;;;2.45;2.25;;;18.20;99.90;;;;;;5043517;28;25112;-69
2022/08/10 00:17:26;;;;;;;2.63;1.67;;;18.10;99.90;;;;;;5041701;28;25111;-70
2022/08/10 00:19:51;;;;;;;2.47;2.28;;;18.20;99.90;;;;;;5046807;28;25062;-71
2022/08/10 00:22:17;;;;;;;3.30;3.00;;;18.10;99.90;;;;;;5052167;28;25065;-72
2022/08/10 00:24:43;;;;;;;2.90;1.92;;;18.10;99.90;;;;;;5034796;28;25515;-71
2022/08/10 00:27:09;;;;;;;4.85;2.33;;;18.10;99.90;;;;;;5030193;28;25097;-71
2022/08/10 00:29:35;;;;;;;6.03;2.20;;;18.10;99.90;;;;;;5032089;28;25099;-71
2022/08/10 00:32:01;;;;;;;2.92;2.03;;;18.00;99.90;;;;;;5040553;28;25098;-72
2022/08/10 00:34:28;;;;;;;4.03;2.50;;;18.00;99.90;;;;;;5034942;28;25067;-71
2022/08/10 00:36:54;;;;;;;3.63;2.40;;;18.00;99.90;;;;;;5044381;28;25152;-72
2022/08/10 00:39:19;;;;;;;2.50;2.30;;;18.00;99.90;;;;;;5038766;28;25058;-72
2022/08/10 00:41:45;;;;;;;5.32;2.22;;;18.00;99.90;;;;;;5039931;28;25055;-71
2022/08/10 00:44:11;;;;;;;2.50;2.30;;;18.00;99.90;;;;;;5032734;28;25071;-71
2022/08/10 00:46:36;;;;;;;3.47;2.03;;;17.90;99.90;;;;;;5035104;28;25065;-71
2022/08/10 00:49:02;;;;;;;2.55;2.35;;;17.80;99.90;;;;;;5052837;28;25068;-72
2022/08/10 00:51:28;;;;;;;8.05;2.30;;;17.80;99.90;;;;;;5043535;28;25066;-72
2022/08/10 00:53:53;;;;;;;2.80;2.47;;;17.70;99.90;;;;;;5043278;28;25144;-72
2022/08/10 00:56:19;;;;;;;4.90;2.50;;;17.70;99.90;;;;;;5035828;28;25103;-72
2022/08/10 00:58:45;;;;;;;3.95;2.10;;;17.70;99.90;;;;;;5043476;28;25127;-72
2022/08/10 01:01:11;;;;;;;5.53;2.22;;;17.70;99.90;;;;;;5036094;28;25085;-71
2022/08/10 01:03:37;;;;;;;3.42;2.10;;;17.70;99.90;;;;;;5042573;28;25059;-72
2022/08/10 01:06:30;;;;;;;2.60;2.40;;;17.70;99.90;;;;;;5046837;28;25052;-71
2022/08/10 01:09:21;;;;;;;2.70;2.40;;;17.70;99.90;;;;;;5046028;28;25081;-72
2022/08/10 01:12:15;;;;;;;4.63;2.38;;;17.80;99.90;;;;;;5037754;28;25092;-72
2022/08/10 01:14:54;;;;;;;5.00;2.30;;;17.60;99.90;;;;;;5034284;28;25070;-73
2022/08/10 01:17:37;;;;;;;5.53;2.28;;;17.70;99.90;;;;;;5037341;28;25156;-71
2022/08/10 01:20:28;;;;;;;2.80;2.60;;;17.70;99.90;;;;;;5037161;28;25056;-71
2022/08/10 01:23:09;;;;;;;2.00;1.90;;;17.70;99.90;;;;;;5043230;28;25066;-73
2022/08/10 01:25:38;;;;;;;2.30;2.20;;;17.70;99.90;;;;;;5044068;28;25058;-71
2022/08/10 01:28:26;;;;;;;2.72;2.50;;;17.60;99.90;;;;;;5049118;28;25053;-71
2022/08/10 01:30:54;;;;;;;3.85;2.28;;;17.50;99.90;;;;;;5023904;28;25081;-72
2022/08/10 01:33:42;;;;;;;2.47;2.35;;;17.50;99.90;;;;;;5041687;28;25144;-72
2022/08/10 01:36:30;;;;;;;4.40;2.35;;;17.50;99.90;;;;;;5044030;28;25101;-73
2022/08/10 01:38:59;;;;;;;3.30;2.80;;;17.40;99.90;;;;;;5045317;28;25078;-71
2022/08/10 01:41:29;;;;;;;3.55;2.13;;;17.40;99.90;;;;;;5045546;28;25083;-72
2022/08/10 01:44:02;;;;;;;2.92;2.45;;;17.40;99.90;;;;;;5044235;28;25150;-72
2022/08/10 01:46:29;;;;;;;2.80;2.58;;;17.30;99.90;;;;;;5051347;28;25148;-71
2022/08/10 01:48:57;;;;;;;4.38;2.38;;;17.30;99.90;;;;;;5043887;28;25076;-73
2022/08/10 01:51:31;;;;;;;2.67;2.47;;;17.30;99.90;;;;;;5052829;28;25080;-71
2022/08/10 01:54:12;;;;;;;3.55;3.08;;;17.20;99.90;;;;;;5060585;28;25074;-73
2022/08/10 01:56:41;;;;;;;3.75;2.85;;;17.30;99.90;;;;;;5072607;28;25099;-72
2022/08/10 01:59:14;;;;;;;3.15;2.85;;;17.20;99.90;;;;;;5058203;28;25081;-72
2022/08/10 02:01:47;;;;;;;3.22;2.65;;;17.10;99.90;;;;;;5068201;28;25046;-72
2022/08/10 02:04:14;;;;;;;3.22;2.75;;;17.00;99.90;;;;;;5050557;28;25079;-74
2022/08/10 02:06:46;;;;;;;2.85;2.28;;;17.00;99.90;;;;;;5043454;28;25066;-71
2022/08/10 02:09:17;;;;;;;4.97;2.47;;;17.10;99.90;;;;;;5038015;28;25058;-73
2022/08/10 02:11:43;;;;;;;3.55;2.13;;;17.10;99.90;;;;;;5045618;28;25151;-72
2022/08/10 02:14:13;;;;;;;2.75;2.33;;;17.20;99.90;;;;;;5043904;28;25070;-73
2022/08/10 02:16:42;;;;;;;2.80;2.40;;;17.20;99.90;;;;;;5038273;28;25092;-73
2022/08/10 02:19:10;;;;;;;2.95;2.40;;;17.10;99.90;;;;;;5040916;28;25155;-74
2022/08/10 02:21:38;;;;;;;2.80;2.60;;;17.10;99.90;;;;;;5047675;28;25076;-72
2022/08/10 02:24:07;;;;;;;2.95;2.50;;;17.00;99.90;;;;;;5054083;28;25061;-72
2022/08/10 02:26:33;;;;;;;4.30;2.88;;;17.00;99.90;;;;;;5055802;28;25094;-71
2022/08/10 02:29:00;;;;;;;4.00;2.63;;;17.10;99.90;;;;;;5054936;28;25062;-71
2022/08/10 02:31:27;;;;;;;4.50;2.08;;;16.90;99.90;;;;;;5041394;28;25080;-71
2022/08/10 02:33:54;;;;;;;2.55;2.38;;;17.00;99.90;;;;;;5067137;28;25082;-73
2022/08/10 02:36:23;;;;;;;3.00;2.35;;;17.00;99.90;;;;;;5039168;28;25061;-72
2022/08/10 02:38:51;;;;;;;2.35;2.15;;;17.00;99.90;;;;;;5049821;28;25105;-72
2022/08/10 02:41:40;;;;;;;6.85;2.60;;;17.00;99.90;;;;;;5049289;28;25054;-71
2022/08/10 02:44:12;;;;;;;3.42;2.70;;;17.00;99.90;;;;;;5046317;28;25079;-72
2022/08/10 02:46:45;;;;;;;3.22;2.95;;;16.90;99.90;;;;;;5045791;28;24961;-72
2022/08/10 02:49:20;;;;;;;6.75;2.70;;;17.00;99.90;;;;;;5034615;28;25107;-73
2022/08/10 02:51:51;;;;;;;3.10;2.70;;;16.90;99.90;;;;;;5043775;28;25054;-72
2022/08/10 02:54:22;;;;;;;3.25;2.38;;;16.80;99.90;;;;;;5032677;28;25064;-72
2022/08/10 02:57:07;;;;;;;3.53;3.20;;;16.70;99.90;;;;;;5040959;28;25076;-72
2022/08/10 02:59:44;;;;;;;3.30;3.00;;;16.70;99.90;;;;;;5041248;28;25099;-72
2022/08/10 03:02:21;;;;;;;3.30;3.00;;;16.70;99.90;;;;;;5046836;28;25295;-73
2022/08/10 03:04:52;;;;;;;6.57;3.05;;;16.80;99.90;;;;;;5028947;28;25048;-70
2022/08/10 03:07:21;;;;;;;4.57;2.65;;;16.70;99.90;;;;;;5039542;28;25082;-72
2022/08/10 03:09:48;;;;;;;4.35;3.05;;;16.70;99.90;;;;;;5035704;28;25121;-74
2022/08/10 03:12:15;;;;;;;4.75;2.65;;;16.70;99.90;;;;;;5046168;28;25145;-72
2022/08/10 03:14:43;;;;;;;3.25;2.83;;;16.70;99.90;;;;;;5046753;28;25057;-72
2022/08/10 03:17:10;;;;;;;3.60;3.15;;;16.70;99.90;;;;;;5039158;28;25072;-71
2022/08/10 03:19:37;;;;;;;4.07;2.80;;;16.70;99.90;;;;;;5036372;28;25055;-72
2022/08/10 03:22:03;;;;;;;4.03;2.92;;;16.60;99.90;;;;;;5039417;28;25164;-71
2022/08/10 03:24:30;;;;;;;3.55;3.25;;;16.60;99.90;;;;;;5047944;28;25086;-72
2022/08/10 03:26:57;;;;;;;5.97;3.17;;;16.60;99.90;;;;;;5029628;28;25048;-72
2022/08/10 03:29:24;;;;;;;3.38;3.08;;;16.60;99.90;;;;;;5032119;28;25079;-72
2022/08/10 03:31:51;;;;;;;2.80;2.60;;;16.60;99.90;;;;;;5041190;28;25053;-72
2022/08/10 03:34:20;;;;;;;3.30;3.00;;;16.60;99.90;;;;;;5029706;28;25069;-71
2022/08/10 03:36:46;;;;;;;3.53;3.10;;;16.70;99.90;;;;;;5042074;28;25067;-72
2022/08/10 03:39:12;;;;;;;5.30;4.10;;;16.70;99.90;;;;;;5034713;28;25112;-72
2022/08/10 03:41:47;;;;;;;4.32;3.05;;;16.60;99.90;;;;;;5038588;28;25076;-73
2022/08/10 03:44:18;;;;;;;3.35;3.05;;;16.50;99.90;;;;;;5041714;28;25146;-72
2022/08/10 03:46:45;;;;;;;3.67;3.25;;;16.50;99.90;;;;;;5039055;28;25468;-73
2022/08/10 03:49:13;;;;;;;5.13;3.35;;;16.50;99.90;;;;;;5043512;28;25160;-72
2022/08/10 03:51:40;;;;;;;3.38;3.17;;;16.40;99.90;;;;;;5042213;28;25058;-75
2022/08/10 03:54:07;;;;;;;3.63;3.28;;;16.40;99.90;;;;;;5037067;28;25068;-71
2022/08/10 03:56:38;;;;;;;4.03;3.33;;;16.40;99.90;;;;;;5037631;28;25069;-72
2022/08/10 03:59:06;;;;;;;4.35;3.55;;;16.40;99.90;;;;;;5036816;28;25150;-71
2022/08/10 04:01:32;;;;;;;4.72;3.13;;;16.30;99.90;;;;;;5041476;28;25080;-74
2022/08/10 04:03:57;;;;;;;4.63;4.00;;;16.30;99.90;;;;;;5040845;28;25080;-73
2022/08/10 04:06:23;;;;;;;4.10;3.70;;;16.40;99.90;;;;;;5030171;28;25051;-73
2022/08/10 04:08:49;;;;;;;4.97;3.40;;;16.40;99.90;;;;;;5030684;28;25112;-73
2022/08/10 04:11:15;;;;;;;5.53;3.20;;;16.50;99.90;;;;;;5032346;28;25072;-72
2022/08/10 04:13:40;;;;;;;3.97;3.67;;;16.50;99.90;;;;;;5039416;28;25109;-77
2022/08/10 04:16:06;;;;;;;5.50;3.72;;;16.60;99.90;;;;;;5031949;28;25058;-72
2022/08/10 04:18:32;;;;;;;4.65;3.33;;;16.50;99.90;;;;;;5030884;28;24999;-73
2022/08/10 04:21:03;;;;;;;8.50;3.83;;;16.60;99.90;;;;;;5044325;28;25056;-75
2022/08/10 04:23:32;;;;;;;4.85;3.58;;;16.60;99.90;;;;;;5037176;28;25158;-73
2022/08/10 04:25:58;;;;;;;4.70;3.58;;;16.50;99.90;;;;;;5042885;28;25062;-72
2022/08/10 04:28:25;;;;;;;6.10;3.60;;;16.40;99.90;;;;;;5031152;28;25075;-73
2022/08/10 04:30:52;;;;;;;3.65;3.33;;;16.40;99.90;;;;;;5039458;28;25071;-72
2022/08/10 04:33:21;;;;;;;4.25;3.85;;;16.40;99.90;;;;;;5047112;28;25080;-74
2022/08/10 04:35:48;;;;;;;5.47;4.18;;;16.40;99.90;;;;;;5051960;28;25054;-72
2022/08/10 04:38:15;;;;;;;7.18;4.22;;;16.40;99.90;;;;;;5051751;28;25057;-73
2022/08/10 04:40:41;;;;;;;4.10;3.80;;;16.40;99.90;;;;;;5039531;28;25052;-71
2022/08/10 04:43:07;;;;;;;5.72;3.97;;;16.40;99.90;;;;;;5033895;28;25147;-71
2022/08/10 04:45:34;;;;;;;6.22;3.97;;;16.60;99.90;;;;;;5037072;28;25103;-73
2022/08/10 04:48:00;;;;;;;5.80;4.22;;;16.60;99.90;;;;;;5027949;28;25101;-72
2022/08/10 04:50:26;;;;;;;6.57;4.00;;;16.50;99.90;;;;;;5033226;28;25101;-72
2022/08/10 04:52:52;;;;;;;4.88;3.80;;;16.50;99.90;;;;;;5034688;28;25140;-71
2022/08/10 04:55:18;;;;;;;4.25;3.95;;;16.50;99.90;;;;;;5027316;28;25104;-74
2022/08/10 04:57:43;;;;;;;8.80;4.32;;;16.50;99.90;;;;;;5024188;28;25088;-73
2022/08/10 05:00:09;;;;;;;6.25;4.50;;;16.40;99.90;;;;;;5034911;28;25071;-73
2022/08/10 05:02:35;;;;;;;5.63;4.78;;;16.50;99.90;;;;;;5043541;28;25106;-71
2022/08/10 05:05:01;;;;;;;5.07;4.20;;;16.40;99.90;;;;;;5037365;28;25143;-73
2022/08/10 05:07:27;;;;;;;7.30;4.60;;;16.50;99.90;;;;;;5034764;28;25126;-73
2022/08/10 05:09:55;;;;;;;7.40;4.57;;;16.50;99.90;;;;;;5036518;28;25079;-74
2022/08/10 05:12:22;;;;;;;7.72;4.85;;;16.60;99.90;;;;;;5045524;28;25170;-72
2022/08/10 05:14:47;;;;;;;5.32;4.82;;;16.70;99.90;;;;;;5043985;28;25144;-72
2022/08/10 05:17:13;;;;;;;5.50;4.15;;;16.70;99.90;;;;;;5033613;28;25075;-73
2022/08/10 05:19:39;;;;;;;5.30;4.82;;;16.80;99.90;;;;;;5034527;28;25095;-73
2022/08/10 05:22:05;;;;;;;8.63;4.50;;;16.70;99.90;;;;;;5025818;28;25076;-71
2022/08/10 05:24:31;;;;;;;7.20;5.18;;;16.70;99.90;;;;;;5037040;28;25061;-73
2022/08/10 05:26:57;;;;;;;5.65;4.60;;;16.80;99.90;;;;;;5044349;28;25079;-72
2022/08/10 05:29:22;;;;;;;8.05;5.35;;;16.80;99.90;;;;;;5034388;28;25139;-73
2022/08/10 05:31:48;;;;;;;10.55;4.95;;;16.80;99.90;;;;;;5038934;28;25076;-73
2022/08/10 05:34:15;;;;;;;6.82;4.85;;;16.70;99.90;;;;;;5040238;28;25063;-73
2022/08/10 05:36:41;;;;;;;7.70;5.35;;;16.90;99.90;;;;;;5042550;28;25059;-74
2022/08/10 05:39:08;;;;;;;10.25;6.00;;;16.90;99.90;;;;;;5037004;28;25100;-73
2022/08/10 05:41:34;;;;;;;6.18;5.57;;;16.80;99.90;;;;;;5034433;28;25063;-72
2022/08/10 05:44:01;;;;;;;8.68;5.72;;;16.80;99.90;;;;;;5038406;28;25153;-73
2022/08/10 05:46:26;;;;;;;7.15;5.13;;;16.80;99.90;;;;;;5042234;28;25074;-74
2022/08/10 05:48:52;;;;;;;11.27;5.32;;;16.90;99.90;;;;;;5041628;28;25131;-73
2022/08/10 05:51:18;;;;;;;8.15;5.35;;;17.00;99.90;;;;;;5053678;28;25123;-74
2022/08/10 05:53:44;;;;;;;6.18;5.43;;;17.00;99.90;;;;;;5054703;28;25162;-74
2022/08/10 05:56:10;;;;;;;9.43;5.38;;;17.00;99.90;;;;;;5037420;28;25066;-72
2022/08/10 05:58:36;;;;;;;9.15;5.50;;;17.00;99.90;;;;;;5048785;28;25059;-76
2022/08/10 06:01:08;;;;;;;6.72;6.10;;;17.00;99.90;;;;;;5043585;28;25123;-71
2022/08/10 06:03:39;;;;;;;8.15;5.68;;;17.00;99.90;;;;;;5049610;28;25071;-75
2022/08/10 06:06:07;;;;;;;6.70;5.22;;;17.10;99.90;;;;;;5039364;28;25142;-72
2022/08/10 06:08:34;;;;;;;11.00;6.18;;;17.20;99.90;;;;;;5047909;28;25075;-74
2022/08/10 06:11:02;;;;;;;6.60;5.93;;;17.20;99.90;;;;;;5051725;28;25050;-74
2022/08/10 06:16:15;;;;;;;6.00;5.20;;;17.50;99.90;;;;;;5040126;28;25075;-74
2022/08/10 06:18:42;;;;;;;8.02;6.00;;;17.60;99.90;;;;;;5042108;28;25075;-73
2022/08/10 06:21:11;;;;;;;8.02;6.38;;;17.60;99.90;;;;;;5043584;28;25079;-75
2022/08/10 06:23:38;;;;;;;8.35;6.75;;;17.80;99.90;;;;;;5047131;28;25125;-73
2022/08/10 06:26:05;;;;;;;13.32;6.88;;;18.00;99.90;;;;;;5040006;28;25073;-73
2022/08/10 06:28:34;;;;;;;10.30;6.13;;;17.90;99.90;;;;;;5045101;28;25092;-73
2022/08/10 06:31:01;;;;;;;9.10;6.70;;;17.90;99.90;;;;;;5048739;28;25098;-75
2022/08/10 06:33:30;;;;;;;9.43;6.30;;;18.00;99.90;;;;;;5057700;28;25062;-73
2022/08/10 06:35:57;;;;;;;9.15;5.75;;;18.10;99.90;;;;;;5045931;28;25171;-77
2022/08/10 06:38:25;;;;;;;9.38;6.35;;;18.20;99.90;;;;;;5046455;28;25086;-77
2022/08/10 06:40:55;;;;;;;9.13;6.25;;;18.30;99.90;;;;;;5050453;28;25081;-74
2022/08/10 06:43:23;;;;;;;9.23;6.95;;;18.40;99.90;;;;;;5058479;28;25152;-74
2022/08/10 06:45:53;;;;;;;7.43;6.13;;;18.30;99.90;;;;;;5046809;28;25199;-73
2022/08/10 06:48:26;;;;;;;7.47;5.65;;;18.40;99.90;;;;;;5055632;28;25131;-73
2022/08/10 06:50:59;;;;;;;11.07;6.47;;;18.50;99.90;;;;;;5050054;28;25094;-75
2022/08/10 06:53:36;;;;;;;7.68;6.20;;;18.60;99.90;;;;;;5060191;28;25154;-76
2022/08/10 06:56:10;;;;;;;8.93;6.10;;;18.50;99.90;;;;;;5046488;28;25055;-73
2022/08/10 06:58:40;;;;;;;9.80;7.22;;;18.60;99.90;;;;;;5056691;28;25056;-72
2022/08/10 07:01:11;;;;;;;7.88;6.82;;;18.70;99.90;;;;;;5052447;28;25073;-71
2022/08/10 07:03:48;;;;;;;6.45;5.85;;;18.80;99.90;;;;;;5048627;28;25064;-75
2022/08/10 07:06:16;;;;;;;11.88;6.55;;;18.80;99.90;;;;;;5043020;28;25066;-72
2022/08/10 07:08:42;;;;;;;9.55;6.50;;;18.90;99.90;;;;;;5043276;28;25107;-70
2022/08/10 07:11:10;;;;;;;8.52;5.75;;;19.00;99.90;;;;;;5042896;28;25086;-73
2022/08/10 07:13:38;;;;;;;10.45;5.80;;;19.20;99.90;;;;;;5044557;28;25091;-74
2022/08/10 07:16:10;;;;;;;6.72;5.32;;;19.50;99.90;;;;;;5073040;28;25102;-73
2022/08/10 07:18:36;;;;;;;7.57;5.63;;;19.50;99.90;;;;;;5052304;28;25084;-73
2022/08/10 07:21:02;;;;;;;7.30;6.47;;;19.60;99.90;;;;;;5039296;28;25078;-73
2022/08/10 07:23:29;;;;;;;8.05;5.85;;;19.80;99.90;;;;;;5041959;28;25113;-73
2022/08/10 07:25:58;;;;;;;10.50;5.68;;;20.00;99.90;;;;;;5035614;28;25056;-71
2022/08/10 07:28:24;;;;;;;8.82;5.70;;;20.30;99.90;;;;;;5036756;28;25172;-73
2022/08/10 07:30:52;;;;;;;7.18;5.03;;;20.50;99.90;;;;;;5045182;28;25115;-73
2022/08/10 07:33:20;;;;;;;6.75;5.22;;;20.30;99.90;;;;;;5044202;28;25075;-74
2022/08/10 07:35:47;;;;;;;10.25;6.00;;;20.40;99.90;;;;;;5042401;28;25144;-73
2022/08/10 07:38:25;;;;;;;8.15;5.30;;;20.40;99.90;;;;;;5039742;28;25119;-73
2022/08/10 07:40:52;;;;;;;8.80;4.93;;;20.50;99.90;;;;;;5037676;28;25159;-72
2022/08/10 07:43:24;;;;;;;8.48;5.18;;;20.50;99.90;;;;;;5034536;28;25157;-71
2022/08/10 07:45:49;;;;;;;10.77;5.00;;;20.60;99.90;;;;;;5045104;28;25168;-74
2022/08/10 07:48:21;;;;;;;7.93;5.38;;;20.90;99.90;;;;;;5038435;28;25171;-75
2022/08/10 07:50:47;;;;;;;8.57;5.68;;;21.10;99.90;;;;;;5038379;28;25064;-73
2022/08/10 07:53:20;;;;;;;8.02;5.20;;;20.80;99.90;;;;;;5040171;28;25146;-73
2022/08/10 07:55:48;;;;;;;7.90;5.35;;;21.00;99.90;;;;;;5032564;28;25057;-73
2022/08/10 07:58:15;;;;;;;5.28;4.78;;;21.30;99.90;;;;;;5037967;28;25058;-74
2022/08/10 08:00:42;;;;;;;6.40;4.78;;;21.70;99.90;;;;;;5045314;28;25076;-73
2022/08/10 08:03:09;;;;;;;8.75;5.60;;;21.40;99.90;;;;;;5042974;28;25074;-73
2022/08/10 08:05:35;;;;;;;9.27;5.47;;;21.40;99.90;;;;;;5037916;28;25064;-74
2022/08/10 08:08:02;;;;;;;6.43;4.82;;;21.40;99.90;;;;;;5042699;28;25077;-71
2022/08/10 08:10:29;;;;;;;7.35;4.43;;;21.70;99.90;;;;;;5065175;28;25081;-73
2022/08/10 08:12:57;;;;;;;4.72;4.32;;;21.90;99.90;;;;;;5040181;28;25050;-74
2022/08/10 08:15:25;;;;;;;6.60;4.47;;;21.80;99.90;;;;;;5045385;28;25127;-73
2022/08/10 08:17:52;;;;;;;5.45;4.50;;;21.90;99.90;;;;;;5054000;28;25057;-75
2022/08/10 08:20:20;;;;;;;7.85;4.22;;;22.00;99.90;;;;;;5049213;28;25051;-73
2022/08/10 08:22:47;;;;;;;9.57;4.20;;;22.50;99.90;;;;;;5048607;28;25102;-73
2022/08/10 08:25:15;;;;;;;8.40;4.88;;;22.30;99.90;;;;;;5045024;28;25083;-73
2022/08/10 08:27:43;;;;;;;8.68;5.18;;;22.20;99.90;;;;;;5047327;28;25069;-73
2022/08/10 08:30:09;;;;;;;5.97;4.45;;;22.10;99.90;;;;;;5045710;28;25053;-76
2022/08/10 08:32:37;;;;;;;5.93;4.60;;;22.20;99.90;;;;;;5050496;28;25088;-72
2022/08/10 08:35:09;;;;;;;6.35;4.45;;;22.30;99.90;;;;;;5045665;28;25121;-73
2022/08/10 08:37:39;;;;;;;5.28;4.35;;;22.60;99.90;;;;;;5047334;28;25062;-74
2022/08/10 08:40:09;;;;;;;7.03;4.32;;;22.90;99.90;;;;;;5046909;28;25162;-72
2022/08/10 08:42:53;;;;;;;5.32;4.50;;;23.10;99.90;;;;;;5046384;28;25132;-73
2022/08/10 08:45:24;;;;;;;7.40;4.47;;;23.30;99.90;;;;;;5041130;28;25047;-74
2022/08/10 08:48:24;;;;;;;9.20;3.97;;;23.00;99.90;;;;;;5041336;28;25116;-73
2022/08/10 08:51:17;;;;;;;8.38;4.50;;;23.20;99.90;;;;;;5046205;28;25060;-72
2022/08/10 08:54:04;;;;;;;6.47;5.00;;;23.30;99.90;;;;;;5041674;28;25057;-72
2022/08/10 08:56:58;;;;;;;4.70;3.95;;;23.60;99.90;;;;;;5045363;28;25065;-72
2022/08/10 08:59:42;;;;;;;5.25;4.15;;;23.40;99.90;;;;;;5041801;28;25152;-72
2022/08/10 09:02:30;;;;;;;6.90;4.20;;;23.40;99.90;;;;;;5042551;28;25095;-74
2022/08/10 09:05:03;;;;;;;7.03;4.32;;;23.60;99.90;;;;;;5048941;28;25110;-73
2022/08/10 09:07:57;;;;;;;9.50;3.42;;;23.70;99.90;;;;;;5048297;28;25110;-72
2022/08/10 09:10:44;;;;;;;8.23;3.78;;;23.90;99.90;;;;;;5051185;28;25061;-73
2022/08/10 09:13:25;;;;;;;8.73;3.90;;;24.00;99.90;;;;;;5057192;28;25051;-72
2022/08/10 09:16:17;;;;;;;7.82;3.33;;;24.10;99.90;;;;;;5064040;28;25143;-73
2022/08/10 09:18:46;;;;;;;4.53;3.30;;;24.30;99.90;;;;;;5052639;28;25140;-69
2022/08/10 09:21:34;;;;;;;3.33;2.90;;;24.80;99.90;;;;;;5052703;28;25190;-73
2022/08/10 09:24:09;;;;;;;4.57;3.13;;;24.60;99.90;;;;;;5041988;28;25143;-74
2022/08/10 09:26:44;;;;;;;6.35;3.90;;;24.80;99.90;;;;;;5050428;28;25048;-72
2022/08/10 09:29:14;;;;;;;8.32;3.40;;;24.80;99.90;;;;;;5055152;28;25056;-71
2022/08/10 09:31:50;;;;;;;5.70;3.00;;;24.80;99.90;;;;;;5056845;28;25057;-74
2022/08/10 09:34:29;;;;;;;2.67;2.47;;;24.70;99.90;;;;;;5042346;28;25045;-73
2022/08/10 09:37:01;;;;;;;4.97;2.58;;;25.00;99.90;;;;;;5042225;28;25166;-74
2022/08/10 09:39:54;;;;;;;7.93;2.88;;;25.50;99.90;;;;;;5055956;28;25099;-74
2022/08/10 09:42:27;;;;;;;5.97;2.70;;;25.00;99.90;;;;;;5057892;28;25168;-73
2022/08/10 09:45:22;;;;;;;5.35;3.05;;;25.30;99.90;;;;;;5056153;28;25078;-73
2022/08/10 09:48:07;;;;;;;6.18;2.50;;;25.30;99.90;;;;;;5060700;28;25108;-74
2022/08/10 09:50:35;;;;;;;4.63;2.33;;;25.30;99.90;;;;;;5050128;28;25057;-75
2022/08/10 09:53:28;;;;;;;4.88;2.75;;;25.40;99.90;;;;;;5061002;28;25064;-76
2022/08/10 09:56:31;;;;;;;3.85;2.50;;;25.40;99.90;;;;;;5047037;28;25097;-71
2022/08/10 09:59:11;;;;;;;4.35;2.33;;;25.80;99.90;;;;;;5053904;28;25106;-74
2022/08/10 10:01:54;;;;;;;5.18;2.50;;;26.20;99.90;;;;;;5061062;28;25095;-75
2022/08/10 10:04:48;;;;;;;6.07;2.28;;;26.30;99.90;;;;;;5048999;28;25065;-74
2022/08/10 10:07:23;;;;;;;5.05;2.55;;;26.10;99.90;;;;;;5050358;28;25051;-73
2022/08/10 10:10:26;;;;;;;3.35;2.25;;;26.20;99.90;;;;;;5043910;28;25080;-78
2022/08/10 10:12:58;;;;;;;2.55;1.48;;;26.40;99.90;;;;;;5054466;28;25114;-72
2022/08/10 10:15:50;;;;;;;2.10;1.63;;;26.60;99.90;;;;;;5044203;28;25088;-75
2022/08/10 10:18:27;;;;;;;2.97;2.05;;;27.10;99.90;;;;;;5033479;28;25057;-74
2022/08/10 10:21:09;;;;;;;4.03;2.25;;;27.00;99.90;;;;;;5049139;28;25102;-73
2022/08/10 10:23:43;;;;;;;1.73;1.60;;;27.00;99.90;;;;;;5048752;28;25118;-75
2022/08/10 10:26:27;;;;;;;3.17;1.92;;;27.30;99.90;;;;;;5041142;28;25071;-74
2022/08/10 10:29:06;;;;;;;4.78;2.28;;;27.30;99.90;;;;;;5042110;28;25103;-73
2022/08/10 10:31:38;;;;;;;6.75;1.60;;;27.30;95.50;;;;;;5038041;28;25072;-73
2022/08/10 10:34:25;;;;;;;3.55;2.00;;;27.50;93.90;;;;;;5041322;28;25100;-74
2022/08/10 10:36:51;;;;;;;3.13;1.60;;;27.80;82.70;;;;;;5038834;28;25057;-73
2022/08/10 10:39:20;;;;;;;3.63;1.90;;;27.70;69.80;;;;;;5041149;28;25124;-73
2022/08/10 10:42:05;;;;;;;2.40;1.63;;;27.90;66.60;;;;;;5044671;28;25110;-73
2022/08/10 10:44:59;;;;;;;3.85;1.50;;;28.20;63.10;;;;;;5038005;28;25065;-72
2022/08/10 10:48:12;;;;;;;3.72;1.50;;;28.50;50.40;;;;;;5033456;28;25153;-72
2022/08/10 10:50:53;;;;;;;5.90;1.83;;;28.60;45.80;;;;;;4963004;28;25070;-75
2022/08/10 10:53:37;;;;;;;3.10;1.60;;;28.70;48.50;;;;;;4966166;28;25095;-75
2022/08/10 10:56:15;;;;;;;4.03;1.95;;;28.60;38.00;;;;;;5013188;28;25064;-73
2022/08/10 10:59:08;;;;;;;5.53;1.50;;;29.00;29.30;;;;;;5035757;28;25072;-72
2022/08/10 11:02:14;;;;;;;2.28;1.38;;;29.50;26.90;;;;;;5042074;28;25178;-76
2022/08/10 11:05:00;;;;;;;8.63;1.73;;;29.30;13.10;;;;;;4999889;28;25133;-74
2022/08/10 11:07:43;;;;;;;1.90;1.27;;;29.40;16.60;;;;;;5042394;28;25053;-74
2022/08/10 11:10:15;;;;;;;2.88;1.30;;;29.10;2.50;;;;;;5041495;28;25146;-74
2022/08/10 11:12:56;;;;;;;3.13;1.50;;;29.40;9.30;;;;;;5041022;28;25052;-73
2022/08/10 11:15:31;;;;;;;4.18;1.65;;;29.80;1.00;;;;;;5039402;28;25054;-73
2022/08/10 11:18:03;;;;;;;9.30;1.90;;;29.90;1.00;;;;;;5041854;28;25078;-72
2022/08/10 11:20:45;;;;;;;3.42;1.45;;;29.70;1.00;;;;;;5039488;28;25067;-72
2022/08/10 11:23:19;;;;;;;3.97;1.65;;;30.20;1.00;;;;;;5036582;28;25160;-73
2022/08/10 11:25:52;;;;;;;5.43;1.60;;;30.70;1.00;;;;;;5030760;28;25131;-74
2022/08/10 11:28:29;;;;;;;2.75;1.60;;;30.30;1.00;;;;;;5034092;28;25047;-73
2022/08/10 11:31:05;;;;;;;3.33;1.50;;;29.90;1.00;;;;;;5037181;28;25144;-74
2022/08/10 11:33:57;;;;;;;6.43;1.98;;;29.90;1.00;;;;;;5048459;28;25094;-73
2022/08/10 11:36:35;;;;;;;3.33;1.70;;;29.70;1.00;;;;;;5043113;28;25131;-72
2022/08/10 11:39:08;;;;;;;3.97;1.38;;;29.50;1.00;;;;;;5039328;28;25121;-72
2022/08/10 11:41:57;;;;;;;6.82;1.88;;;29.70;1.00;;;;;;5037192;28;25102;-72
2022/08/10 11:44:36;;;;;;;3.80;1.92;;;30.30;1.00;;;;;;5039657;28;25051;-76
2022/08/10 11:47:16;;;;;;;3.65;1.63;;;30.20;1.00;;;;;;5032945;28;25068;-74
2022/08/10 11:49:58;;;;;;;2.28;1.70;;;29.90;1.00;;;;;;5041940;28;25101;-74
2022/08/10 11:52:42;;;;;;;5.55;1.95;;;30.30;1.00;;;;;;5040363;28;25141;-74
2022/08/10 11:55:23;;;;;;;6.85;2.13;;;30.60;1.00;;;;;;5040998;28;25062;-74
2022/08/10 11:57:55;;;;;;;2.53;1.40;;;30.90;1.00;;;;;;5041867;28;25134;-75
2022/08/10 12:00:22;;;;;;;2.63;1.50;;;30.60;1.00;;;;;;5045493;28;25064;-74
2022/08/10 12:03:06;;;;;;;3.58;1.70;;;30.80;1.00;;;;;;5059587;28;25092;-73
2022/08/10 12:05:38;;;;;;;5.03;1.58;;;30.50;1.00;;;;;;5066934;28;25055;-74
2022/08/10 12:08:04;;;;;;;2.00;1.33;;;31.00;1.00;;;;;;5057797;28;25056;-75
2022/08/10 12:10:31;;;;;;;3.22;1.48;;;31.00;1.00;;;;;;5060549;28;25079;-75
2022/08/10 12:13:15;;;;;;;3.78;1.98;;;31.60;1.00;;;;;;5064435;28;25171;-74
2022/08/10 12:16:01;;;;;;;4.90;1.50;;;31.40;1.00;;;;;;5074266;28;25060;-76
2022/08/10 12:18:37;;;;;;;2.72;1.33;;;31.20;1.00;;;;;;5060699;28;25060;-73
2022/08/10 12:21:10;;;;;;;1.88;1.63;;;31.60;1.00;;;;;;5057058;28;25062;-74
2022/08/10 12:23:44;;;;;;;3.35;1.40;;;31.70;99.90;;;;;;5060500;28;25069;-75
2022/08/10 12:26:24;;;;;;;5.85;1.52;;;31.70;99.90;;;;;;5055974;28;25053;-73
2022/08/10 12:29:09;;;;;;;4.05;1.98;;;31.00;99.90;;;;;;5062473;28;25074;-74
2022/08/10 12:31:42;;;;;;;3.22;1.35;;;30.80;1.00;;;;;;5063575;28;25111;-75
2022/08/10 12:34:37;;;;;;;4.93;1.60;;;31.30;1.00;;;;;;5066558;28;25071;-78
2022/08/10 12:37:23;;;;;;;5.38;1.33;;;31.10;99.90;;;;;;5057294;28;25068;-75
2022/08/10 12:40:07;;;;;;;7.15;2.08;;;31.30;99.90;;;;;;5056544;28;25059;-74
2022/08/10 12:42:43;;;;;;;6.90;1.63;;;31.70;99.90;;;;;;5055342;28;25071;-74
2022/08/10 12:45:22;;;;;;;4.13;1.70;;;32.40;99.90;;;;;;5068426;28;25063;-75
2022/08/10 12:48:10;;;;;;;2.08;1.60;;;32.70;99.90;;;;;;5059761;28;25063;-75
2022/08/10 12:50:48;;;;;;;4.53;1.83;;;32.10;99.90;;;;;;5062937;28;25099;-76
2022/08/10 12:53:35;;;;;;;4.28;1.52;;;31.30;99.90;;;;;;5070098;28;25085;-74
2022/08/10 12:56:02;;;;;;;5.47;1.90;;;30.70;99.90;;;;;;5045358;28;25048;-74
2022/08/10 12:58:30;;;;;;;4.53;1.48;;;31.00;99.90;;;;;;5054431;28;25048;-75
2022/08/10 13:00:58;;;;;;;1.92;1.60;;;31.00;99.90;;;;;;5067080;28;25052;-77
2022/08/10 13:03:27;;;;;;;7.10;1.35;;;30.70;99.90;;;;;;5064794;28;25068;-75
2022/08/10 13:05:55;;;;;;;2.17;1.60;;;30.50;99.90;;;;;;5064312;28;25072;-74
2022/08/10 13:11:10;;;;;;;7.90;1.60;;;30.60;99.90;;;;;;5068403;28;25124;-75
2022/08/10 13:13:38;;;;;;;2.67;1.45;;;30.60;99.90;;;;;;5057740;28;25065;-74
2022/08/10 13:16:04;;;;;;;2.50;1.33;;;30.50;99.90;;;;;;5054297;28;25111;-73
2022/08/10 13:18:40;;;;;;;2.58;1.55;;;30.60;99.90;;;;;;5051881;28;25072;-75
2022/08/10 13:21:09;;;;;;;3.42;1.80;;;30.60;99.90;;;;;;5048788;28;25144;-74